sensor_id;sensor_type;location;lat;lon;timestamp;P1;durP1;ratioP1;P2;durP2;ratioP2
1178;SDS011;578;48.408;10.004;2022-09-12T00:00:38;23.77;;;20.33;;
1178;SDS011;578;48.408;10.004;2022-09-12T00:03:05;22.10;;;19.70;;
1178;SDS011;578;48.408;10.004;2022-09-12T00:05:33;21.53;;;19.23;;
1178;SDS011;578;48.408;10.004;2022-09-12T00:08:05;20.40;;;18.20;;
1178;SDS011;578;48.408;10.004;2022-09-12T00:10:32;20.02;;;17.90;;
1178;SDS011;578;48.408;10.004;2022-09-12T00:13:01;18.27;;;16.48;;
1178;SDS011;578;48.408;10.004;2022-09-12T00:15:28;17.57;;;15.60;;
1178;SDS011;578;48.408;10.004;2022-09-12T00:17:55;15.50;;;13.10;;
1178;SDS011;578;48.408;10.004;2022-09-12T00:20:21;18.77;;;16.83;;
1178;SDS011;578;48.408;10.004;2022-09-12T00:22:49;19.30;;;17.30;;
1178;SDS011;578;48.408;10.004;2022-09-12T00:25:16;19.30;;;17.40;;
1178;SDS011;578;48.408;10.004;2022-09-12T00:27:43;19.80;;;17.70;;
1178;SDS011;578;48.408;10.004;2022-09-12T00:30:10;18.98;;;17.00;;
1178;SDS011;578;48.408;10.004;2022-09-12T00:32:37;18.67;;;16.80;;
1178;SDS011;578;48.408;10.004;2022-09-12T00:35:04;19.10;;;17.10;;
1178;SDS011;578;48.408;10.004;2022-09-12T00:37:31;22.90;;;17.90;;
1178;SDS011;578;48.408;10.004;2022-09-12T00:40:01;19.83;;;17.73;;
1178;SDS011;578;48.408;10.004;2022-09-12T00:42:28;19.15;;;17.05;;
1178;SDS011;578;48.408;10.004;2022-09-12T00:44:54;20.50;;;17.80;;
1178;SDS011;578;48.408;10.004;2022-09-12T00:47:22;19.98;;;17.83;;
1178;SDS011;578;48.408;10.004;2022-09-12T00:49:54;20.63;;;18.52;;
1178;SDS011;578;48.408;10.004;2022-09-12T00:52:27;20.58;;;18.48;;
1178;SDS011;578;48.408;10.004;2022-09-12T00:54:59;21.95;;;19.63;;
1178;SDS011;578;48.408;10.004;2022-09-12T00:57:32;21.83;;;19.45;;
1178;SDS011;578;48.408;10.004;2022-09-12T01:00:06;26.30;;;21.00;;
1178;SDS011;578;48.408;10.004;2022-09-12T01:02:38;22.67;;;20.27;;
1178;SDS011;578;48.408;10.004;2022-09-12T01:05:05;20.77;;;18.45;;
1178;SDS011;578;48.408;10.004;2022-09-12T01:07:33;21.38;;;18.95;;
1178;SDS011;578;48.408;10.004;2022-09-12T01:10:01;22.23;;;19.30;;
1178;SDS011;578;48.408;10.004;2022-09-12T01:12:30;21.75;;;18.67;;
1178;SDS011;578;48.408;10.004;2022-09-12T01:14:58;23.02;;;18.63;;
1178;SDS011;578;48.408;10.004;2022-09-12T01:17:26;21.30;;;19.00;;
1178;SDS011;578;48.408;10.004;2022-09-12T01:25:59;18.50;;;15.37;;
1178;SDS011;578;48.408;10.004;2022-09-12T01:28:49;19.23;;;15.10;;
1178;SDS011;578;48.408;10.004;2022-09-12T01:31:30;22.33;;;19.60;;
1178;SDS011;578;48.408;10.004;2022-09-12T01:34:09;18.53;;;15.30;;
1178;SDS011;578;48.408;10.004;2022-09-12T01:36:47;23.37;;;19.50;;
1178;SDS011;578;48.408;10.004;2022-09-12T01:39:25;21.80;;;19.42;;
1178;SDS011;578;48.408;10.004;2022-09-12T01:41:59;22.20;;;19.90;;
1178;SDS011;578;48.408;10.004;2022-09-12T01:44:35;24.52;;;18.98;;
1178;SDS011;578;48.408;10.004;2022-09-12T01:47:12;24.48;;;20.40;;
1178;SDS011;578;48.408;10.004;2022-09-12T01:49:44;21.77;;;19.17;;
1178;SDS011;578;48.408;10.004;2022-09-12T01:52:22;22.10;;;19.52;;
1178;SDS011;578;48.408;10.004;2022-09-12T01:54:54;26.90;;;21.45;;
1178;SDS011;578;48.408;10.004;2022-09-12T01:57:28;24.83;;;21.40;;
1178;SDS011;578;48.408;10.004;2022-09-12T01:59:59;22.27;;;19.98;;
1178;SDS011;578;48.408;10.004;2022-09-12T02:02:32;23.75;;;19.88;;
1178;SDS011;578;48.408;10.004;2022-09-12T02:05:03;21.58;;;19.27;;
1178;SDS011;578;48.408;10.004;2022-09-12T02:07:35;21.80;;;19.08;;
1178;SDS011;578;48.408;10.004;2022-09-12T02:10:05;20.53;;;17.13;;
1178;SDS011;578;48.408;10.004;2022-09-12T02:12:37;23.48;;;20.23;;
1178;SDS011;578;48.408;10.004;2022-09-12T02:15:07;22.70;;;20.20;;
1178;SDS011;578;48.408;10.004;2022-09-12T02:17:40;25.65;;;20.10;;
1178;SDS011;578;48.408;10.004;2022-09-12T02:20:11;24.13;;;20.35;;
1178;SDS011;578;48.408;10.004;2022-09-12T02:22:42;23.38;;;20.63;;
1178;SDS011;578;48.408;10.004;2022-09-12T02:25:10;24.13;;;20.13;;
1178;SDS011;578;48.408;10.004;2022-09-12T02:27:43;25.00;;;20.25;;
1178;SDS011;578;48.408;10.004;2022-09-12T02:30:12;26.85;;;20.73;;
1178;SDS011;578;48.408;10.004;2022-09-12T02:32:42;22.90;;;17.67;;
1178;SDS011;578;48.408;10.004;2022-09-12T02:35:21;21.73;;;19.27;;
1178;SDS011;578;48.408;10.004;2022-09-12T02:37:58;22.57;;;16.83;;
1178;SDS011;578;48.408;10.004;2022-09-12T02:40:28;20.75;;;18.55;;
1178;SDS011;578;48.408;10.004;2022-09-12T02:42:55;19.37;;;16.37;;
1178;SDS011;578;48.408;10.004;2022-09-12T02:45:22;26.02;;;21.45;;
1178;SDS011;578;48.408;10.004;2022-09-12T02:47:52;26.50;;;20.77;;
1178;SDS011;578;48.408;10.004;2022-09-12T02:50:22;25.75;;;20.70;;
1178;SDS011;578;48.408;10.004;2022-09-12T02:52:49;29.95;;;23.17;;
1178;SDS011;578;48.408;10.004;2022-09-12T02:55:17;28.63;;;22.40;;
1178;SDS011;578;48.408;10.004;2022-09-12T02:57:44;22.77;;;17.87;;
1178;SDS011;578;48.408;10.004;2022-09-12T03:00:11;24.93;;;20.70;;
1178;SDS011;578;48.408;10.004;2022-09-12T03:02:44;24.02;;;21.25;;
1178;SDS011;578;48.408;10.004;2022-09-12T03:05:28;22.63;;;20.08;;
1178;SDS011;578;48.408;10.004;2022-09-12T03:10:49;25.23;;;19.60;;
1178;SDS011;578;48.408;10.004;2022-09-12T03:13:31;19.27;;;15.10;;
1178;SDS011;578;48.408;10.004;2022-09-12T03:16:06;22.50;;;20.10;;
1178;SDS011;578;48.408;10.004;2022-09-12T03:18:46;20.73;;;18.25;;
1178;SDS011;578;48.408;10.004;2022-09-12T03:21:20;19.40;;;17.40;;
1178;SDS011;578;48.408;10.004;2022-09-12T03:23:53;20.65;;;18.45;;
1178;SDS011;578;48.408;10.004;2022-09-12T03:26:29;19.80;;;17.80;;
1178;SDS011;578;48.408;10.004;2022-09-12T03:29:00;19.83;;;17.52;;
1178;SDS011;578;48.408;10.004;2022-09-12T03:31:29;19.50;;;16.60;;
1178;SDS011;578;48.408;10.004;2022-09-12T03:33:59;21.00;;;18.80;;
1178;SDS011;578;48.408;10.004;2022-09-12T03:36:27;24.13;;;18.90;;
1178;SDS011;578;48.408;10.004;2022-09-12T03:38:55;21.27;;;19.08;;
1178;SDS011;578;48.408;10.004;2022-09-12T03:41:22;26.00;;;15.83;;
1178;SDS011;578;48.408;10.004;2022-09-12T03:43:49;22.83;;;18.45;;
1178;SDS011;578;48.408;10.004;2022-09-12T03:46:15;20.07;;;16.80;;
1178;SDS011;578;48.408;10.004;2022-09-12T03:48:42;23.70;;;20.23;;
1178;SDS011;578;48.408;10.004;2022-09-12T03:51:10;22.52;;;18.88;;
1178;SDS011;578;48.408;10.004;2022-09-12T03:53:37;21.08;;;18.15;;
1178;SDS011;578;48.408;10.004;2022-09-12T03:56:07;20.70;;;18.40;;
1178;SDS011;578;48.408;10.004;2022-09-12T03:58:35;21.23;;;18.02;;
1178;SDS011;578;48.408;10.004;2022-09-12T04:01:05;18.40;;;16.00;;
1178;SDS011;578;48.408;10.004;2022-09-12T04:03:36;20.50;;;18.30;;
1178;SDS011;578;48.408;10.004;2022-09-12T04:06:03;36.67;;;16.57;;
1178;SDS011;578;48.408;10.004;2022-09-12T04:08:31;18.83;;;16.07;;
1178;SDS011;578;48.408;10.004;2022-09-12T04:11:01;20.10;;;17.90;;
1178;SDS011;578;48.408;10.004;2022-09-12T04:13:28;22.73;;;18.80;;
1178;SDS011;578;48.408;10.004;2022-09-12T04:15:55;23.73;;;18.17;;
1178;SDS011;578;48.408;10.004;2022-09-12T04:18:22;22.45;;;20.05;;
1178;SDS011;578;48.408;10.004;2022-09-12T04:20:49;21.92;;;19.17;;
1178;SDS011;578;48.408;10.004;2022-09-12T04:23:16;26.40;;;21.00;;
1178;SDS011;578;48.408;10.004;2022-09-12T04:25:44;23.15;;;18.88;;
1178;SDS011;578;48.408;10.004;2022-09-12T04:28:18;24.38;;;19.70;;
1178;SDS011;578;48.408;10.004;2022-09-12T04:30:44;21.42;;;18.50;;
1178;SDS011;578;48.408;10.004;2022-09-12T04:33:11;20.50;;;17.40;;
1178;SDS011;578;48.408;10.004;2022-09-12T04:35:38;20.42;;;17.42;;
1178;SDS011;578;48.408;10.004;2022-09-12T04:38:05;23.00;;;19.60;;
1178;SDS011;578;48.408;10.004;2022-09-12T04:40:32;25.05;;;19.92;;
1178;SDS011;578;48.408;10.004;2022-09-12T04:43:00;26.15;;;21.58;;
1178;SDS011;578;48.408;10.004;2022-09-12T04:45:27;29.13;;;21.70;;
1178;SDS011;578;48.408;10.004;2022-09-12T04:47:53;23.13;;;18.30;;
1178;SDS011;578;48.408;10.004;2022-09-12T04:50:20;25.42;;;21.48;;
1178;SDS011;578;48.408;10.004;2022-09-12T04:52:48;23.92;;;20.10;;
1178;SDS011;578;48.408;10.004;2022-09-12T04:55:15;21.02;;;18.80;;
1178;SDS011;578;48.408;10.004;2022-09-12T04:57:42;21.85;;;18.98;;
1178;SDS011;578;48.408;10.004;2022-09-12T05:00:10;20.73;;;18.52;;
1178;SDS011;578;48.408;10.004;2022-09-12T05:02:38;21.33;;;18.77;;
1178;SDS011;578;48.408;10.004;2022-09-12T05:05:06;24.45;;;20.10;;
1178;SDS011;578;48.408;10.004;2022-09-12T05:07:33;22.17;;;17.30;;
1178;SDS011;578;48.408;10.004;2022-09-12T05:10:00;21.33;;;18.38;;
1178;SDS011;578;48.408;10.004;2022-09-12T05:12:27;22.88;;;18.90;;
1178;SDS011;578;48.408;10.004;2022-09-12T05:14:55;25.40;;;20.30;;
1178;SDS011;578;48.408;10.004;2022-09-12T05:17:23;23.00;;;20.20;;
1178;SDS011;578;48.408;10.004;2022-09-12T05:19:50;27.60;;;20.40;;
1178;SDS011;578;48.408;10.004;2022-09-12T05:22:16;31.35;;;22.08;;
1178;SDS011;578;48.408;10.004;2022-09-12T05:24:43;34.58;;;24.30;;
1178;SDS011;578;48.408;10.004;2022-09-12T05:27:10;34.75;;;23.85;;
1178;SDS011;578;48.408;10.004;2022-09-12T05:29:37;40.50;;;23.40;;
1178;SDS011;578;48.408;10.004;2022-09-12T05:32:03;39.13;;;24.70;;
1178;SDS011;578;48.408;10.004;2022-09-12T05:34:31;34.20;;;23.83;;
1178;SDS011;578;48.408;10.004;2022-09-12T05:36:58;32.08;;;22.67;;
1178;SDS011;578;48.408;10.004;2022-09-12T05:39:25;31.83;;;22.42;;
1178;SDS011;578;48.408;10.004;2022-09-12T05:41:51;48.92;;;26.00;;
1178;SDS011;578;48.408;10.004;2022-09-12T05:44:18;40.55;;;26.77;;
1178;SDS011;578;48.408;10.004;2022-09-12T05:46:45;43.90;;;26.77;;
1178;SDS011;578;48.408;10.004;2022-09-12T05:49:14;38.38;;;25.80;;
1178;SDS011;578;48.408;10.004;2022-09-12T05:51:43;33.58;;;24.98;;
1178;SDS011;578;48.408;10.004;2022-09-12T05:54:11;41.17;;;24.55;;
1178;SDS011;578;48.408;10.004;2022-09-12T05:56:39;50.05;;;25.48;;
1178;SDS011;578;48.408;10.004;2022-09-12T05:59:10;43.83;;;26.67;;
1178;SDS011;578;48.408;10.004;2022-09-12T06:01:38;45.97;;;27.00;;
1178;SDS011;578;48.408;10.004;2022-09-12T06:04:05;47.33;;;26.30;;
1178;SDS011;578;48.408;10.004;2022-09-12T06:06:34;67.90;;;25.85;;
1178;SDS011;578;48.408;10.004;2022-09-12T06:09:04;53.75;;;28.30;;
1178;SDS011;578;48.408;10.004;2022-09-12T06:11:31;54.43;;;25.83;;
1178;SDS011;578;48.408;10.004;2022-09-12T06:13:59;74.88;;;27.10;;
1178;SDS011;578;48.408;10.004;2022-09-12T06:16:27;45.72;;;27.02;;
1178;SDS011;578;48.408;10.004;2022-09-12T06:18:55;45.05;;;23.40;;
1178;SDS011;578;48.408;10.004;2022-09-12T06:21:23;41.28;;;22.98;;
1178;SDS011;578;48.408;10.004;2022-09-12T06:23:52;89.32;;;26.73;;
1178;SDS011;578;48.408;10.004;2022-09-12T06:26:20;55.43;;;22.13;;
1178;SDS011;578;48.408;10.004;2022-09-12T06:28:49;20.60;;;16.37;;
1178;SDS011;578;48.408;10.004;2022-09-12T06:31:17;38.60;;;18.53;;
1178;SDS011;578;48.408;10.004;2022-09-12T06:33:46;36.35;;;23.08;;
1178;SDS011;578;48.408;10.004;2022-09-12T06:36:14;87.73;;;22.03;;
1178;SDS011;578;48.408;10.004;2022-09-12T06:38:42;50.50;;;20.20;;
1178;SDS011;578;48.408;10.004;2022-09-12T06:41:12;30.07;;;18.60;;
1178;SDS011;578;48.408;10.004;2022-09-12T06:43:40;31.27;;;19.70;;
1178;SDS011;578;48.408;10.004;2022-09-12T06:46:07;35.00;;;21.13;;
1178;SDS011;578;48.408;10.004;2022-09-12T06:48:34;29.37;;;21.60;;
1178;SDS011;578;48.408;10.004;2022-09-12T06:51:02;40.60;;;21.80;;
1178;SDS011;578;48.408;10.004;2022-09-12T06:53:31;38.33;;;24.90;;
1178;SDS011;578;48.408;10.004;2022-09-12T06:56:01;32.10;;;22.67;;
1178;SDS011;578;48.408;10.004;2022-09-12T06:58:30;28.57;;;21.40;;
1178;SDS011;578;48.408;10.004;2022-09-12T07:01:01;37.70;;;24.17;;
1178;SDS011;578;48.408;10.004;2022-09-12T07:03:29;35.03;;;23.27;;
1178;SDS011;578;48.408;10.004;2022-09-12T07:05:56;59.00;;;25.30;;
1178;SDS011;578;48.408;10.004;2022-09-12T07:08:26;56.17;;;25.40;;
1178;SDS011;578;48.408;10.004;2022-09-12T07:10:55;40.60;;;24.00;;
1178;SDS011;578;48.408;10.004;2022-09-12T07:13:22;37.60;;;24.27;;
1178;SDS011;578;48.408;10.004;2022-09-12T07:15:49;44.47;;;24.17;;
1178;SDS011;578;48.408;10.004;2022-09-12T07:18:18;50.93;;;25.10;;
1178;SDS011;578;48.408;10.004;2022-09-12T07:20:44;38.07;;;22.07;;
1178;SDS011;578;48.408;10.004;2022-09-12T07:23:11;51.00;;;24.40;;
1178;SDS011;578;48.408;10.004;2022-09-12T07:25:38;60.70;;;27.70;;
1178;SDS011;578;48.408;10.004;2022-09-12T07:28:04;59.70;;;31.20;;
1178;SDS011;578;48.408;10.004;2022-09-12T07:30:31;56.27;;;28.67;;
1178;SDS011;578;48.408;10.004;2022-09-12T07:32:58;55.53;;;27.60;;
1178;SDS011;578;48.408;10.004;2022-09-12T07:35:26;53.83;;;22.37;;
1178;SDS011;578;48.408;10.004;2022-09-12T07:37:52;43.10;;;26.30;;
1178;SDS011;578;48.408;10.004;2022-09-12T07:40:20;43.40;;;24.57;;
1178;SDS011;578;48.408;10.004;2022-09-12T07:42:46;51.63;;;25.97;;
1178;SDS011;578;48.408;10.004;2022-09-12T07:45:13;48.57;;;25.10;;
1178;SDS011;578;48.408;10.004;2022-09-12T07:47:40;56.53;;;27.40;;
1178;SDS011;578;48.408;10.004;2022-09-12T07:50:07;48.90;;;27.07;;
1178;SDS011;578;48.408;10.004;2022-09-12T07:52:36;46.13;;;24.10;;
1178;SDS011;578;48.408;10.004;2022-09-12T07:55:02;49.53;;;26.07;;
1178;SDS011;578;48.408;10.004;2022-09-12T07:57:30;41.90;;;25.90;;
1178;SDS011;578;48.408;10.004;2022-09-12T07:59:56;38.93;;;21.10;;
1178;SDS011;578;48.408;10.004;2022-09-12T08:02:23;33.30;;;21.23;;
1178;SDS011;578;48.408;10.004;2022-09-12T08:04:50;35.47;;;22.63;;
1178;SDS011;578;48.408;10.004;2022-09-12T08:07:16;35.93;;;19.30;;
1178;SDS011;578;48.408;10.004;2022-09-12T08:09:45;30.27;;;20.60;;
1178;SDS011;578;48.408;10.004;2022-09-12T08:12:12;21.50;;;17.07;;
1178;SDS011;578;48.408;10.004;2022-09-12T08:14:40;20.90;;;13.50;;
1178;SDS011;578;48.408;10.004;2022-09-12T08:17:06;15.90;;;14.20;;
1178;SDS011;578;48.408;10.004;2022-09-12T08:19:33;15.43;;;12.90;;
1178;SDS011;578;48.408;10.004;2022-09-12T08:22:00;14.57;;;13.17;;
1178;SDS011;578;48.408;10.004;2022-09-12T08:24:28;14.07;;;12.73;;
1178;SDS011;578;48.408;10.004;2022-09-12T08:26:57;14.37;;;12.53;;
1178;SDS011;578;48.408;10.004;2022-09-12T08:29:24;13.43;;;12.13;;
1178;SDS011;578;48.408;10.004;2022-09-12T08:31:50;12.70;;;11.60;;
1178;SDS011;578;48.408;10.004;2022-09-12T08:34:17;13.53;;;12.13;;
1178;SDS011;578;48.408;10.004;2022-09-12T08:36:45;11.90;;;10.80;;
1178;SDS011;578;48.408;10.004;2022-09-12T08:39:11;11.50;;;10.40;;
1178;SDS011;578;48.408;10.004;2022-09-12T08:41:39;10.50;;;9.60;;
1178;SDS011;578;48.408;10.004;2022-09-12T08:44:18;11.40;;;10.33;;
1178;SDS011;578;48.408;10.004;2022-09-12T08:47:08;10.77;;;9.77;;
1178;SDS011;578;48.408;10.004;2022-09-12T08:49:44;10.13;;;9.23;;
1178;SDS011;578;48.408;10.004;2022-09-12T08:52:17;10.27;;;9.43;;
1178;SDS011;578;48.408;10.004;2022-09-12T08:54:48;9.87;;;9.07;;
1178;SDS011;578;48.408;10.004;2022-09-12T08:57:15;9.50;;;8.70;;
1178;SDS011;578;48.408;10.004;2022-09-12T08:59:44;9.90;;;9.03;;
1178;SDS011;578;48.408;10.004;2022-09-12T09:02:17;9.13;;;8.33;;
1178;SDS011;578;48.408;10.004;2022-09-12T09:04:59;7.87;;;7.17;;
1178;SDS011;578;48.408;10.004;2022-09-12T09:07:36;9.50;;;8.70;;
1178;SDS011;578;48.408;10.004;2022-09-12T09:10:20;8.23;;;7.53;;
1178;SDS011;578;48.408;10.004;2022-09-12T09:12:53;8.90;;;8.20;;
1178;SDS011;578;48.408;10.004;2022-09-12T09:15:32;9.33;;;8.40;;
1178;SDS011;578;48.408;10.004;2022-09-12T09:18:08;8.50;;;7.80;;
1178;SDS011;578;48.408;10.004;2022-09-12T09:20:41;9.10;;;8.40;;
1178;SDS011;578;48.408;10.004;2022-09-12T09:23:13;7.83;;;7.23;;
1178;SDS011;578;48.408;10.004;2022-09-12T09:25:48;8.17;;;7.47;;
1178;SDS011;578;48.408;10.004;2022-09-12T09:28:19;7.03;;;6.50;;
1178;SDS011;578;48.408;10.004;2022-09-12T09:30:51;7.27;;;6.67;;
1178;SDS011;578;48.408;10.004;2022-09-12T09:33:20;7.30;;;6.70;;
1178;SDS011;578;48.408;10.004;2022-09-12T09:35:50;7.20;;;6.60;;
1178;SDS011;578;48.408;10.004;2022-09-12T09:38:25;7.57;;;6.97;;
1178;SDS011;578;48.408;10.004;2022-09-12T09:41:02;7.10;;;6.50;;
1178;SDS011;578;48.408;10.004;2022-09-12T09:43:39;6.90;;;6.37;;
1178;SDS011;578;48.408;10.004;2022-09-12T09:46:07;7.13;;;6.53;;
1178;SDS011;578;48.408;10.004;2022-09-12T09:48:36;6.60;;;6.00;;
1178;SDS011;578;48.408;10.004;2022-09-12T09:51:06;6.30;;;5.80;;
1178;SDS011;578;48.408;10.004;2022-09-12T09:53:35;6.20;;;5.60;;
1178;SDS011;578;48.408;10.004;2022-09-12T09:56:06;5.90;;;5.40;;
1178;SDS011;578;48.408;10.004;2022-09-12T09:58:37;5.70;;;5.13;;
1178;SDS011;578;48.408;10.004;2022-09-12T10:01:05;5.40;;;5.00;;
1178;SDS011;578;48.408;10.004;2022-09-12T10:03:39;6.30;;;5.70;;
1178;SDS011;578;48.408;10.004;2022-09-12T10:06:21;5.70;;;4.60;;
1178;SDS011;578;48.408;10.004;2022-09-12T10:09:02;5.03;;;4.57;;
1178;SDS011;578;48.408;10.004;2022-09-12T10:11:31;4.97;;;4.57;;
1178;SDS011;578;48.408;10.004;2022-09-12T10:14:00;4.80;;;4.13;;
1178;SDS011;578;48.408;10.004;2022-09-12T10:16:30;14.90;;;4.30;;
1178;SDS011;578;48.408;10.004;2022-09-12T10:18:59;5.57;;;5.10;;
1178;SDS011;578;48.408;10.004;2022-09-12T10:21:28;4.83;;;4.27;;
1178;SDS011;578;48.408;10.004;2022-09-12T10:23:58;4.80;;;4.40;;
1178;SDS011;578;48.408;10.004;2022-09-12T10:26:32;4.40;;;4.03;;
1178;SDS011;578;48.408;10.004;2022-09-12T10:29:08;4.77;;;4.37;;
1178;SDS011;578;48.408;10.004;2022-09-12T10:31:45;4.30;;;4.00;;
1178;SDS011;578;48.408;10.004;2022-09-12T10:34:25;4.20;;;3.80;;
1178;SDS011;578;48.408;10.004;2022-09-12T10:36:58;3.93;;;3.50;;
1178;SDS011;578;48.408;10.004;2022-09-12T10:39:27;3.27;;;2.97;;
1178;SDS011;578;48.408;10.004;2022-09-12T10:41:56;3.43;;;3.13;;
1178;SDS011;578;48.408;10.004;2022-09-12T10:44:24;3.23;;;2.80;;
1178;SDS011;578;48.408;10.004;2022-09-12T10:46:53;3.37;;;3.07;;
1178;SDS011;578;48.408;10.004;2022-09-12T10:49:22;4.30;;;3.87;;
1178;SDS011;578;48.408;10.004;2022-09-12T10:51:51;3.47;;;3.17;;
1178;SDS011;578;48.408;10.004;2022-09-12T10:54:20;3.37;;;3.07;;
1178;SDS011;578;48.408;10.004;2022-09-12T10:56:51;3.70;;;3.40;;
1178;SDS011;578;48.408;10.004;2022-09-12T10:59:36;3.90;;;3.60;;
1178;SDS011;578;48.408;10.004;2022-09-12T11:02:18;3.00;;;2.70;;
1178;SDS011;578;48.408;10.004;2022-09-12T11:04:54;4.80;;;3.30;;
1178;SDS011;578;48.408;10.004;2022-09-12T11:07:31;5.07;;;3.33;;
1178;SDS011;578;48.408;10.004;2022-09-12T11:10:09;3.97;;;2.80;;
1178;SDS011;578;48.408;10.004;2022-09-12T11:12:52;3.27;;;2.97;;
1178;SDS011;578;48.408;10.004;2022-09-12T11:15:33;3.83;;;2.97;;
1178;SDS011;578;48.408;10.004;2022-09-12T11:18:27;3.70;;;3.20;;
1178;SDS011;578;48.408;10.004;2022-09-12T11:21:13;4.07;;;3.50;;
1178;SDS011;578;48.408;10.004;2022-09-12T11:24:00;3.60;;;3.20;;
1178;SDS011;578;48.408;10.004;2022-09-12T11:26:42;3.57;;;2.90;;
1178;SDS011;578;48.408;10.004;2022-09-12T11:29:16;4.13;;;3.60;;
1178;SDS011;578;48.408;10.004;2022-09-12T11:34:59;4.47;;;4.07;;
1178;SDS011;578;48.408;10.004;2022-09-12T11:37:42;4.53;;;4.13;;
1178;SDS011;578;48.408;10.004;2022-09-12T11:40:23;4.50;;;4.10;;
1178;SDS011;578;48.408;10.004;2022-09-12T11:42:55;4.23;;;3.83;;
1178;SDS011;578;48.408;10.004;2022-09-12T11:45:27;3.80;;;3.50;;
1178;SDS011;578;48.408;10.004;2022-09-12T11:47:56;3.83;;;3.30;;
1178;SDS011;578;48.408;10.004;2022-09-12T11:50:30;4.83;;;4.40;;
1178;SDS011;578;48.408;10.004;2022-09-12T11:52:59;7.63;;;3.50;;
1178;SDS011;578;48.408;10.004;2022-09-12T11:55:35;5.07;;;4.67;;
1178;SDS011;578;48.408;10.004;2022-09-12T11:58:10;4.80;;;3.90;;
1178;SDS011;578;48.408;10.004;2022-09-12T12:00:38;4.43;;;4.00;;
1178;SDS011;578;48.408;10.004;2022-09-12T12:03:12;3.83;;;3.43;;
1178;SDS011;578;48.408;10.004;2022-09-12T12:05:46;4.80;;;4.40;;
1178;SDS011;578;48.408;10.004;2022-09-12T12:08:18;4.90;;;3.83;;
1178;SDS011;578;48.408;10.004;2022-09-12T12:10:47;5.03;;;4.43;;
1178;SDS011;578;48.408;10.004;2022-09-12T12:13:19;5.50;;;5.00;;
1178;SDS011;578;48.408;10.004;2022-09-12T12:15:52;4.40;;;4.00;;
1178;SDS011;578;48.408;10.004;2022-09-12T12:18:23;4.90;;;4.50;;
1178;SDS011;578;48.408;10.004;2022-09-12T12:20:53;4.90;;;4.40;;
1178;SDS011;578;48.408;10.004;2022-09-12T12:23:22;3.83;;;3.53;;
1178;SDS011;578;48.408;10.004;2022-09-12T12:25:51;4.53;;;4.13;;
1178;SDS011;578;48.408;10.004;2022-09-12T12:31:22;4.50;;;3.83;;
1178;SDS011;578;48.408;10.004;2022-09-12T12:33:53;4.07;;;3.70;;
1178;SDS011;578;48.408;10.004;2022-09-12T12:36:36;3.80;;;3.50;;
1178;SDS011;578;48.408;10.004;2022-09-12T12:42:09;3.50;;;3.20;;
1178;SDS011;578;48.408;10.004;2022-09-12T12:45:48;4.60;;;3.53;;
1178;SDS011;578;48.408;10.004;2022-09-12T12:48:28;4.80;;;4.40;;
1178;SDS011;578;48.408;10.004;2022-09-12T12:51:15;3.67;;;3.30;;
1178;SDS011;578;48.408;10.004;2022-09-12T12:53:52;4.33;;;3.93;;
1178;SDS011;578;48.408;10.004;2022-09-12T12:59:12;3.93;;;3.53;;
1178;SDS011;578;48.408;10.004;2022-09-12T13:01:46;3.70;;;3.10;;
1178;SDS011;578;48.408;10.004;2022-09-12T13:04:15;3.47;;;2.50;;
1178;SDS011;578;48.408;10.004;2022-09-12T13:06:45;3.30;;;2.80;;
1178;SDS011;578;48.408;10.004;2022-09-12T13:09:22;4.22;;;3.20;;
1178;SDS011;578;48.408;10.004;2022-09-12T13:11:54;3.95;;;2.72;;
1178;SDS011;578;48.408;10.004;2022-09-12T13:17:15;3.00;;;2.70;;
1178;SDS011;578;48.408;10.004;2022-09-12T13:19:48;4.10;;;2.63;;
1178;SDS011;578;48.408;10.004;2022-09-12T13:22:16;3.38;;;3.00;;
1178;SDS011;578;48.408;10.004;2022-09-12T13:24:49;3.63;;;3.00;;
1178;SDS011;578;48.408;10.004;2022-09-12T13:27:17;3.20;;;2.90;;
1178;SDS011;578;48.408;10.004;2022-09-12T13:29:45;3.63;;;2.80;;
1178;SDS011;578;48.408;10.004;2022-09-12T13:32:12;3.30;;;2.50;;
1178;SDS011;578;48.408;10.004;2022-09-12T13:34:45;3.90;;;2.40;;
1178;SDS011;578;48.408;10.004;2022-09-12T13:37:31;3.27;;;2.70;;
1178;SDS011;578;48.408;10.004;2022-09-12T13:40:14;2.97;;;2.30;;
1178;SDS011;578;48.408;10.004;2022-09-12T13:42:52;3.00;;;2.40;;
1178;SDS011;578;48.408;10.004;2022-09-12T13:45:34;2.40;;;2.20;;
1178;SDS011;578;48.408;10.004;2022-09-12T13:48:03;3.70;;;2.40;;
1178;SDS011;578;48.408;10.004;2022-09-12T13:50:32;3.13;;;2.47;;
1178;SDS011;578;48.408;10.004;2022-09-12T13:53:04;3.15;;;2.85;;
1178;SDS011;578;48.408;10.004;2022-09-12T13:55:38;3.22;;;2.50;;
1178;SDS011;578;48.408;10.004;2022-09-12T13:58:14;3.00;;;2.40;;
1178;SDS011;578;48.408;10.004;2022-09-12T14:00:43;2.53;;;2.30;;
1178;SDS011;578;48.408;10.004;2022-09-12T14:03:24;2.45;;;2.25;;
1178;SDS011;578;48.408;10.004;2022-09-12T14:06:09;2.90;;;2.60;;
1178;SDS011;578;48.408;10.004;2022-09-12T14:08:38;3.60;;;2.20;;
1178;SDS011;578;48.408;10.004;2022-09-12T14:11:08;3.30;;;2.30;;
1178;SDS011;578;48.408;10.004;2022-09-12T14:13:35;2.55;;;2.10;;
1178;SDS011;578;48.408;10.004;2022-09-12T14:16:03;2.30;;;2.00;;
1178;SDS011;578;48.408;10.004;2022-09-12T14:18:33;2.67;;;2.00;;
1178;SDS011;578;48.408;10.004;2022-09-12T14:21:07;2.40;;;2.20;;
1178;SDS011;578;48.408;10.004;2022-09-12T14:23:37;2.40;;;2.10;;
1178;SDS011;578;48.408;10.004;2022-09-12T14:26:08;3.10;;;2.33;;
1178;SDS011;578;48.408;10.004;2022-09-12T14:28:37;2.40;;;1.80;;
1178;SDS011;578;48.408;10.004;2022-09-12T14:31:06;2.50;;;1.92;;
1178;SDS011;578;48.408;10.004;2022-09-12T14:33:46;3.10;;;1.80;;
1178;SDS011;578;48.408;10.004;2022-09-12T14:36:19;2.22;;;2.03;;
1178;SDS011;578;48.408;10.004;2022-09-12T14:38:51;2.30;;;1.80;;
1178;SDS011;578;48.408;10.004;2022-09-12T14:41:23;2.67;;;1.90;;
1178;SDS011;578;48.408;10.004;2022-09-12T14:43:53;2.90;;;2.60;;
1178;SDS011;578;48.408;10.004;2022-09-12T14:46:23;5.80;;;2.42;;
1178;SDS011;578;48.408;10.004;2022-09-12T14:48:56;2.90;;;2.30;;
1178;SDS011;578;48.408;10.004;2022-09-12T14:51:26;2.60;;;2.30;;
1178;SDS011;578;48.408;10.004;2022-09-12T14:53:57;2.40;;;2.20;;
1178;SDS011;578;48.408;10.004;2022-09-12T14:56:37;2.70;;;2.30;;
1178;SDS011;578;48.408;10.004;2022-09-12T15:04:46;2.25;;;1.90;;
1178;SDS011;578;48.408;10.004;2022-09-12T15:07:15;3.20;;;2.13;;
1178;SDS011;578;48.408;10.004;2022-09-12T15:09:53;2.43;;;2.00;;
1178;SDS011;578;48.408;10.004;2022-09-12T15:12:22;2.33;;;1.90;;
1178;SDS011;578;48.408;10.004;2022-09-12T15:14:49;2.47;;;1.85;;
1178;SDS011;578;48.408;10.004;2022-09-12T15:17:16;2.78;;;1.90;;
1178;SDS011;578;48.408;10.004;2022-09-12T15:19:42;3.10;;;2.10;;
1178;SDS011;578;48.408;10.004;2022-09-12T15:22:09;3.90;;;2.00;;
1178;SDS011;578;48.408;10.004;2022-09-12T15:24:37;2.20;;;2.00;;
1178;SDS011;578;48.408;10.004;2022-09-12T15:27:06;3.08;;;1.95;;
1178;SDS011;578;48.408;10.004;2022-09-12T15:29:37;2.80;;;1.83;;
1178;SDS011;578;48.408;10.004;2022-09-12T15:32:04;3.93;;;1.90;;
1178;SDS011;578;48.408;10.004;2022-09-12T15:34:32;2.00;;;1.80;;
1178;SDS011;578;48.408;10.004;2022-09-12T15:36:58;1.92;;;1.73;;
1178;SDS011;578;48.408;10.004;2022-09-12T15:39:26;2.60;;;1.60;;
1178;SDS011;578;48.408;10.004;2022-09-12T15:41:52;1.90;;;1.70;;
1178;SDS011;578;48.408;10.004;2022-09-12T15:44:19;2.30;;;1.92;;
1178;SDS011;578;48.408;10.004;2022-09-12T15:46:48;2.50;;;1.70;;
1178;SDS011;578;48.408;10.004;2022-09-12T15:49:15;1.80;;;1.52;;
1178;SDS011;578;48.408;10.004;2022-09-12T15:51:42;2.00;;;1.70;;